sensor_id;sensor_type;location;lat;lon;timestamp;pressure;altitude;pressure_sealevel;temperature;humidity
73566;BME280;61846;52.970;-3.168;2023-05-21T00:00:46;101606.41;;;15.44;39.18
73566;BME280;61846;52.970;-3.168;2023-05-21T00:03:11;101606.18;;;15.19;39.50
73566;BME280;61846;52.970;-3.168;2023-05-21T00:05:37;101602.95;;;15.58;39.06
73566;BME280;61846;52.970;-3.168;2023-05-21T00:08:03;101607.43;;;15.46;39.21
73566;BME280;61846;52.970;-3.168;2023-05-21T00:10:27;101603.64;;;15.55;39.38
73566;BME280;61846;52.970;-3.168;2023-05-21T00:12:53;101605.11;;;15.63;39.15
73566;BME280;61846;52.970;-3.168;2023-05-21T00:15:19;101600.16;;;15.01;40.25
73566;BME280;61846;52.970;-3.168;2023-05-21T00:17:44;101595.91;;;15.59;38.78
73566;BME280;61846;52.970;-3.168;2023-05-21T00:20:10;101598.58;;;15.20;39.16
73566;BME280;61846;52.970;-3.168;2023-05-21T00:22:34;101596.53;;;15.20;39.33
73566;BME280;61846;52.970;-3.168;2023-05-21T00:25:00;101598.30;;;14.37;40.39
73566;BME280;61846;52.970;-3.168;2023-05-21T00:27:26;101594.86;;;15.16;38.45
73566;BME280;61846;52.970;-3.168;2023-05-21T00:29:51;101595.63;;;15.10;39.17
73566;BME280;61846;52.970;-3.168;2023-05-21T00:32:17;101592.39;;;15.40;38.95
73566;BME280;61846;52.970;-3.168;2023-05-21T00:34:43;101595.69;;;15.44;38.25
73566;BME280;61846;52.970;-3.168;2023-05-21T00:37:08;101594.63;;;15.56;38.08
73566;BME280;61846;52.970;-3.168;2023-05-21T00:39:33;101595.47;;;15.31;38.76
73566;BME280;61846;52.970;-3.168;2023-05-21T00:41:59;101595.76;;;15.45;38.22
73566;BME280;61846;52.970;-3.168;2023-05-21T00:44:24;101598.35;;;15.40;38.23
73566;BME280;61846;52.970;-3.168;2023-05-21T00:46:50;101601.54;;;14.69;40.16
73566;BME280;61846;52.970;-3.168;2023-05-21T00:49:15;101599.48;;;14.54;40.45
73566;BME280;61846;52.970;-3.168;2023-05-21T00:51:40;101594.70;;;14.62;40.55
73566;BME280;61846;52.970;-3.168;2023-05-21T00:54:06;101592.68;;;15.29;39.35
73566;BME280;61846;52.970;-3.168;2023-05-21T00:56:32;101591.15;;;15.23;38.76
73566;BME280;61846;52.970;-3.168;2023-05-21T00:58:57;101590.48;;;14.99;39.46
73566;BME280;61846;52.970;-3.168;2023-05-21T01:01:23;101586.52;;;15.13;39.42
73566;BME280;61846;52.970;-3.168;2023-05-21T01:03:48;101584.48;;;14.54;40.05
73566;BME280;61846;52.970;-3.168;2023-05-21T01:06:14;101583.29;;;13.50;41.95
73566;BME280;61846;52.970;-3.168;2023-05-21T01:08:40;101580.14;;;14.78;40.05
73566;BME280;61846;52.970;-3.168;2023-05-21T01:11:06;101578.08;;;14.94;39.34
73566;BME280;61846;52.970;-3.168;2023-05-21T01:13:31;101574.82;;;14.14;40.81
73566;BME280;61846;52.970;-3.168;2023-05-21T01:15:56;101571.07;;;14.18;41.41
73566;BME280;61846;52.970;-3.168;2023-05-21T01:18:21;101572.02;;;13.86;41.50
73566;BME280;61846;52.970;-3.168;2023-05-21T01:20:46;101575.09;;;13.65;41.72
73566;BME280;61846;52.970;-3.168;2023-05-21T01:23:13;101571.59;;;13.99;41.83
73566;BME280;61846;52.970;-3.168;2023-05-21T01:25:38;101568.78;;;13.54;41.56
73566;BME280;61846;52.970;-3.168;2023-05-21T01:28:03;101565.20;;;14.14;41.45
73566;BME280;61846;52.970;-3.168;2023-05-21T01:30:29;101564.09;;;15.06;39.77
73566;BME280;61846;52.970;-3.168;2023-05-21T01:33:01;101561.35;;;14.80;39.89
73566;BME280;61846;52.970;-3.168;2023-05-21T01:35:22;101561.62;;;13.96;41.08
73566;BME280;61846;52.970;-3.168;2023-05-21T01:37:50;101561.73;;;14.12;41.28
73566;BME280;61846;52.970;-3.168;2023-05-21T01:40:15;101562.12;;;13.90;41.50
73566;BME280;61846;52.970;-3.168;2023-05-21T01:42:38;101562.94;;;14.85;39.86
73566;BME280;61846;52.970;-3.168;2023-05-21T01:45:02;101561.50;;;13.94;41.02
73566;BME280;61846;52.970;-3.168;2023-05-21T01:47:30;101560.58;;;14.45;40.03
73566;BME280;61846;52.970;-3.168;2023-05-21T01:49:53;101558.50;;;13.64;41.42
73566;BME280;61846;52.970;-3.168;2023-05-21T01:52:18;101558.25;;;14.32;40.57
73566;BME280;61846;52.970;-3.168;2023-05-21T01:54:44;101557.64;;;14.44;40.20
73566;BME280;61846;52.970;-3.168;2023-05-21T01:57:10;101553.90;;;13.49;41.30
73566;BME280;61846;52.970;-3.168;2023-05-21T01:59:35;101558.59;;;14.03;40.67
73566;BME280;61846;52.970;-3.168;2023-05-21T02:02:01;101560.88;;;13.62;40.78
73566;BME280;61846;52.970;-3.168;2023-05-21T02:04:26;101558.95;;;14.36;40.22
73566;BME280;61846;52.970;-3.168;2023-05-21T02:06:51;101559.18;;;14.47;39.73
73566;BME280;61846;52.970;-3.168;2023-05-21T02:09:17;101559.53;;;14.66;39.63
73566;BME280;61846;52.970;-3.168;2023-05-21T02:11:42;101560.62;;;13.42;41.58
73566;BME280;61846;52.970;-3.168;2023-05-21T02:14:08;101558.50;;;13.71;41.27
73566;BME280;61846;52.970;-3.168;2023-05-21T02:16:33;101559.83;;;13.17;41.85
73566;BME280;61846;52.970;-3.168;2023-05-21T02:18:59;101559.63;;;14.07;40.37
73566;BME280;61846;52.970;-3.168;2023-05-21T02:21:25;101558.36;;;14.04;40.18
73566;BME280;61846;52.970;-3.168;2023-05-21T02:23:50;101556.14;;;13.23;41.19
73566;BME280;61846;52.970;-3.168;2023-05-21T02:26:15;101553.10;;;13.84;40.45
73566;BME280;61846;52.970;-3.168;2023-05-21T02:28:41;101549.64;;;13.61;41.21
73566;BME280;61846;52.970;-3.168;2023-05-21T02:31:06;101550.77;;;14.06;40.83
73566;BME280;61846;52.970;-3.168;2023-05-21T02:33:32;101550.45;;;13.21;42.43
73566;BME280;61846;52.970;-3.168;2023-05-21T02:35:57;101546.71;;;13.13;41.30
73566;BME280;61846;52.970;-3.168;2023-05-21T02:38:23;101545.31;;;14.02;40.04
73566;BME280;61846;52.970;-3.168;2023-05-21T02:40:48;101543.12;;;14.01;39.60
73566;BME280;61846;52.970;-3.168;2023-05-21T02:43:13;101540.67;;;13.94;40.74
73566;BME280;61846;52.970;-3.168;2023-05-21T02:45:38;101540.57;;;13.74;40.54
73566;BME280;61846;52.970;-3.168;2023-05-21T02:48:04;101542.29;;;12.99;41.36
73566;BME280;61846;52.970;-3.168;2023-05-21T02:50:29;101543.79;;;12.80;42.24
73566;BME280;61846;52.970;-3.168;2023-05-21T02:52:54;101546.81;;;12.58;42.58
73566;BME280;61846;52.970;-3.168;2023-05-21T02:55:20;101542.76;;;13.53;41.35
73566;BME280;61846;52.970;-3.168;2023-05-21T02:57:47;101538.32;;;13.47;40.97
73566;BME280;61846;52.970;-3.168;2023-05-21T03:00:13;101542.03;;;13.09;41.89
73566;BME280;61846;52.970;-3.168;2023-05-21T03:02:37;101545.18;;;12.68;42.73
73566;BME280;61846;52.970;-3.168;2023-05-21T03:05:04;101546.87;;;13.01;42.26
73566;BME280;61846;52.970;-3.168;2023-05-21T03:07:29;101543.55;;;12.67;42.49
73566;BME280;61846;52.970;-3.168;2023-05-21T03:09:54;101541.86;;;12.54;42.96
73566;BME280;61846;52.970;-3.168;2023-05-21T03:12:20;101540.76;;;12.59;42.87
73566;BME280;61846;52.970;-3.168;2023-05-21T03:14:45;101535.70;;;13.37;40.95
73566;BME280;61846;52.970;-3.168;2023-05-21T03:17:11;101536.45;;;12.56;42.56
73566;BME280;61846;52.970;-3.168;2023-05-21T03:19:36;101530.40;;;12.78;42.12
73566;BME280;61846;52.970;-3.168;2023-05-21T03:22:03;101526.10;;;13.74;40.27
73566;BME280;61846;52.970;-3.168;2023-05-21T03:24:28;101521.34;;;13.58;40.25
73566;BME280;61846;52.970;-3.168;2023-05-21T03:26:53;101517.81;;;13.84;40.09
73566;BME280;61846;52.970;-3.168;2023-05-21T03:29:18;101518.23;;;12.16;42.69
73566;BME280;61846;52.970;-3.168;2023-05-21T03:31:44;101520.07;;;11.67;43.46
73566;BME280;61846;52.970;-3.168;2023-05-21T03:34:10;101514.99;;;12.81;41.97
73566;BME280;61846;52.970;-3.168;2023-05-21T03:36:36;101518.83;;;13.03;41.56
73566;BME280;61846;52.970;-3.168;2023-05-21T03:39:02;101520.37;;;11.93;43.39
73566;BME280;61846;52.970;-3.168;2023-05-21T03:41:27;101519.96;;;12.52;41.92
73566;BME280;61846;52.970;-3.168;2023-05-21T03:43:53;101517.26;;;13.08;41.16
73566;BME280;61846;52.970;-3.168;2023-05-21T03:46:18;101521.84;;;12.29;41.81
73566;BME280;61846;52.970;-3.168;2023-05-21T03:48:44;101523.02;;;12.52;42.11
73566;BME280;61846;52.970;-3.168;2023-05-21T03:51:10;101523.54;;;12.13;43.21
73566;BME280;61846;52.970;-3.168;2023-05-21T03:53:36;101523.91;;;12.16;43.38
73566;BME280;61846;52.970;-3.168;2023-05-21T03:56:00;101522.33;;;12.17;43.24
73566;BME280;61846;52.970;-3.168;2023-05-21T03:58:26;101521.07;;;11.78;43.47
73566;BME280;61846;52.970;-3.168;2023-05-21T04:00:51;101517.86;;;12.16;43.26
73566;BME280;61846;52.970;-3.168;2023-05-21T04:03:17;101515.02;;;11.98;43.47
73566;BME280;61846;52.970;-3.168;2023-05-21T04:05:42;101506.24;;;12.25;42.57
73566;BME280;61846;52.970;-3.168;2023-05-21T04:08:08;101502.86;;;12.10;42.79
73566;BME280;61846;52.970;-3.168;2023-05-21T04:10:33;101501.15;;;12.62;41.99
73566;BME280;61846;52.970;-3.168;2023-05-21T04:12:58;101501.83;;;12.82;41.67
73566;BME280;61846;52.970;-3.168;2023-05-21T04:15:24;101501.59;;;12.48;42.44
73566;BME280;61846;52.970;-3.168;2023-05-21T04:17:49;101499.40;;;12.59;41.43
73566;BME280;61846;52.970;-3.168;2023-05-21T04:20:14;101500.40;;;12.28;42.22
73566;BME280;61846;52.970;-3.168;2023-05-21T04:22:40;101500.23;;;12.47;41.70
73566;BME280;61846;52.970;-3.168;2023-05-21T04:25:05;101504.59;;;12.66;41.96
73566;BME280;61846;52.970;-3.168;2023-05-21T04:27:30;101505.86;;;12.49;41.83
73566;BME280;61846;52.970;-3.168;2023-05-21T04:29:56;101510.27;;;12.29;41.94
73566;BME280;61846;52.970;-3.168;2023-05-21T04:32:21;101507.63;;;12.65;41.65
73566;BME280;61846;52.970;-3.168;2023-05-21T04:34:46;101511.91;;;11.81;43.20
73566;BME280;61846;52.970;-3.168;2023-05-21T04:37:12;101511.09;;;12.56;41.46
73566;BME280;61846;52.970;-3.168;2023-05-21T04:39:37;101510.59;;;11.70;42.65
73566;BME280;61846;52.970;-3.168;2023-05-21T04:42:03;101506.26;;;11.73;43.21
73566;BME280;61846;52.970;-3.168;2023-05-21T04:44:28;101500.97;;;12.72;41.19
73566;BME280;61846;52.970;-3.168;2023-05-21T04:46:53;101503.28;;;13.02;41.45
73566;BME280;61846;52.970;-3.168;2023-05-21T04:49:19;101504.90;;;13.00;41.72
73566;BME280;61846;52.970;-3.168;2023-05-21T04:51:44;101508.30;;;12.86;42.04
73566;BME280;61846;52.970;-3.168;2023-05-21T04:54:09;101507.12;;;12.38;42.94
73566;BME280;61846;52.970;-3.168;2023-05-21T04:56:35;101508.46;;;12.31;42.47
73566;BME280;61846;52.970;-3.168;2023-05-21T04:59:00;101508.87;;;12.74;42.29
73566;BME280;61846;52.970;-3.168;2023-05-21T05:01:26;101514.02;;;11.27;50.12
73566;BME280;61846;52.970;-3.168;2023-05-21T05:03:51;101510.44;;;12.46;42.56
73566;BME280;61846;52.970;-3.168;2023-05-21T05:06:17;101509.61;;;12.75;42.37
73566;BME280;61846;52.970;-3.168;2023-05-21T05:08:42;101509.95;;;12.52;42.08
73566;BME280;61846;52.970;-3.168;2023-05-21T05:11:07;101508.08;;;12.23;42.94
73566;BME280;61846;52.970;-3.168;2023-05-21T05:13:33;101509.83;;;12.49;42.71
73566;BME280;61846;52.970;-3.168;2023-05-21T05:15:59;101512.95;;;12.66;42.04
73566;BME280;61846;52.970;-3.168;2023-05-21T05:18:24;101518.83;;;11.62;43.54
73566;BME280;61846;52.970;-3.168;2023-05-21T05:20:50;101517.87;;;11.78;44.21
73566;BME280;61846;52.970;-3.168;2023-05-21T05:23:15;101518.93;;;11.38;44.74
73566;BME280;61846;52.970;-3.168;2023-05-21T05:25:41;101520.13;;;11.38;44.97
73566;BME280;61846;52.970;-3.168;2023-05-21T05:28:06;101523.00;;;11.00;45.67
73566;BME280;61846;52.970;-3.168;2023-05-21T05:30:32;101527.59;;;10.25;47.40
73566;BME280;61846;52.970;-3.168;2023-05-21T05:32:57;101526.35;;;10.56;47.22
73566;BME280;61846;52.970;-3.168;2023-05-21T05:35:23;101524.30;;;10.22;48.03
73566;BME280;61846;52.970;-3.168;2023-05-21T05:37:48;101527.20;;;10.88;47.01
73566;BME280;61846;52.970;-3.168;2023-05-21T05:40:14;101525.44;;;11.05;46.59
73566;BME280;61846;52.970;-3.168;2023-05-21T05:42:39;101526.22;;;11.30;45.63
73566;BME280;61846;52.970;-3.168;2023-05-21T05:45:05;101528.23;;;11.91;44.96
73566;BME280;61846;52.970;-3.168;2023-05-21T05:47:29;101527.04;;;11.82;44.48
73566;BME280;61846;52.970;-3.168;2023-05-21T05:49:55;101524.85;;;11.83;44.77
73566;BME280;61846;52.970;-3.168;2023-05-21T05:52:20;101527.60;;;12.10;44.50
73566;BME280;61846;52.970;-3.168;2023-05-21T05:54:46;101528.92;;;12.48;44.18
73566;BME280;61846;52.970;-3.168;2023-05-21T05:57:11;101532.01;;;12.12;44.45
73566;BME280;61846;52.970;-3.168;2023-05-21T05:59:36;101534.95;;;12.33;44.91
73566;BME280;61846;52.970;-3.168;2023-05-21T06:02:02;101533.41;;;12.65;44.10
73566;BME280;61846;52.970;-3.168;2023-05-21T06:04:27;101535.20;;;12.48;44.41
73566;BME280;61846;52.970;-3.168;2023-05-21T06:06:53;101535.87;;;11.83;43.96
73566;BME280;61846;52.970;-3.168;2023-05-21T06:09:18;101536.28;;;11.64;44.80
73566;BME280;61846;52.970;-3.168;2023-05-21T06:11:44;101539.27;;;11.82;44.26
73566;BME280;61846;52.970;-3.168;2023-05-21T06:14:09;101538.31;;;11.92;45.04
73566;BME280;61846;52.970;-3.168;2023-05-21T06:16:34;101536.34;;;11.62;44.58
73566;BME280;61846;52.970;-3.168;2023-05-21T06:18:59;101537.86;;;11.85;45.48
73566;BME280;61846;52.970;-3.168;2023-05-21T06:21:25;101537.93;;;11.43;45.54
73566;BME280;61846;52.970;-3.168;2023-05-21T06:23:50;101537.65;;;12.72;43.44
73566;BME280;61846;52.970;-3.168;2023-05-21T06:26:16;101540.76;;;12.94;42.77
73566;BME280;61846;52.970;-3.168;2023-05-21T06:28:41;101544.07;;;13.45;41.56
73566;BME280;61846;52.970;-3.168;2023-05-21T06:31:06;101545.05;;;13.06;42.25
73566;BME280;61846;52.970;-3.168;2023-05-21T06:33:32;101543.51;;;13.32;42.07
73566;BME280;61846;52.970;-3.168;2023-05-21T06:35:58;101542.13;;;13.86;41.47
73566;BME280;61846;52.970;-3.168;2023-05-21T06:38:23;101543.55;;;13.51;41.31
73566;BME280;61846;52.970;-3.168;2023-05-21T06:40:49;101543.87;;;13.93;41.36
73566;BME280;61846;52.970;-3.168;2023-05-21T06:43:14;101541.29;;;13.70;41.17
73566;BME280;61846;52.970;-3.168;2023-05-21T06:45:40;101543.08;;;13.84;40.97
73566;BME280;61846;52.970;-3.168;2023-05-21T06:48:06;101543.52;;;14.23;40.89
73566;BME280;61846;52.970;-3.168;2023-05-21T06:50:32;101542.39;;;13.99;40.57
73566;BME280;61846;52.970;-3.168;2023-05-21T06:52:57;101544.92;;;14.06;41.35
73566;BME280;61846;52.970;-3.168;2023-05-21T06:55:23;101548.60;;;14.20;40.87
73566;BME280;61846;52.970;-3.168;2023-05-21T06:57:48;101549.42;;;14.51;39.76
73566;BME280;61846;52.970;-3.168;2023-05-21T07:00:13;101547.45;;;14.71;39.78
73566;BME280;61846;52.970;-3.168;2023-05-21T07:02:39;101549.03;;;13.91;41.66
73566;BME280;61846;52.970;-3.168;2023-05-21T07:05:04;101546.17;;;14.47;40.68
73566;BME280;61846;52.970;-3.168;2023-05-21T07:07:29;101540.55;;;14.79;40.23
73566;BME280;61846;52.970;-3.168;2023-05-21T07:09:55;101541.72;;;14.97;38.68
73566;BME280;61846;52.970;-3.168;2023-05-21T07:12:20;101543.57;;;14.58;38.81
73566;BME280;61846;52.970;-3.168;2023-05-21T07:14:46;101544.57;;;14.32;39.30
73566;BME280;61846;52.970;-3.168;2023-05-21T07:17:11;101542.02;;;14.77;39.61
73566;BME280;61846;52.970;-3.168;2023-05-21T07:19:37;101538.85;;;15.32;38.64
73566;BME280;61846;52.970;-3.168;2023-05-21T07:22:03;101538.00;;;15.26;38.56
73566;BME280;61846;52.970;-3.168;2023-05-21T07:24:28;101538.96;;;15.11;38.35
73566;BME280;61846;52.970;-3.168;2023-05-21T07:26:53;101538.21;;;15.58;38.43
73566;BME280;61846;52.970;-3.168;2023-05-21T07:29:19;101534.84;;;15.92;37.54
73566;BME280;61846;52.970;-3.168;2023-05-21T07:31:44;101537.73;;;15.89;37.58
73566;BME280;61846;52.970;-3.168;2023-05-21T07:34:10;101531.65;;;16.18;36.89
73566;BME280;61846;52.970;-3.168;2023-05-21T07:36:36;101531.02;;;15.80;36.72
73566;BME280;61846;52.970;-3.168;2023-05-21T07:39:01;101532.85;;;15.73;37.03
73566;BME280;61846;52.970;-3.168;2023-05-21T07:41:27;101531.46;;;16.82;37.29
73566;BME280;61846;52.970;-3.168;2023-05-21T07:43:52;101531.81;;;16.44;37.32
73566;BME280;61846;52.970;-3.168;2023-05-21T07:46:18;101535.80;;;16.48;36.26
73566;BME280;61846;52.970;-3.168;2023-05-21T07:48:43;101536.42;;;16.13;37.68
73566;BME280;61846;52.970;-3.168;2023-05-21T07:51:09;101537.26;;;16.47;37.53
73566;BME280;61846;52.970;-3.168;2023-05-21T07:53:34;101533.30;;;16.93;35.58
73566;BME280;61846;52.970;-3.168;2023-05-21T07:56:00;101538.00;;;16.21;36.62
73566;BME280;61846;52.970;-3.168;2023-05-21T07:58:25;101534.41;;;16.65;36.48
73566;BME280;61846;52.970;-3.168;2023-05-21T08:00:51;101532.37;;;16.64;36.29
73566;BME280;61846;52.970;-3.168;2023-05-21T08:03:17;101530.82;;;17.10;34.66
73566;BME280;61846;52.970;-3.168;2023-05-21T08:05:42;101526.96;;;16.99;35.15
73566;BME280;61846;52.970;-3.168;2023-05-21T08:08:07;101523.21;;;17.87;34.95
73566;BME280;61846;52.970;-3.168;2023-05-21T08:10:32;101519.27;;;17.81;33.79
73566;BME280;61846;52.970;-3.168;2023-05-21T08:12:58;101517.96;;;18.32;33.69
73566;BME280;61846;52.970;-3.168;2023-05-21T08:15:24;101513.96;;;18.57;30.88
73566;BME280;61846;52.970;-3.168;2023-05-21T08:17:49;101512.35;;;18.38;31.97
73566;BME280;61846;52.970;-3.168;2023-05-21T08:20:14;101511.65;;;18.38;29.85
73566;BME280;61846;52.970;-3.168;2023-05-21T08:22:40;101511.70;;;18.56;28.22
73566;BME280;61846;52.970;-3.168;2023-05-21T08:25:06;101514.02;;;19.06;27.75
73566;BME280;61846;52.970;-3.168;2023-05-21T08:27:31;101511.47;;;19.40;28.19
73566;BME280;61846;52.970;-3.168;2023-05-21T08:29:56;101511.90;;;19.19;27.62
73566;BME280;61846;52.970;-3.168;2023-05-21T08:32:22;101508.08;;;19.37;26.91
73566;BME280;61846;52.970;-3.168;2023-05-21T08:34:47;101511.82;;;19.41;29.02
73566;BME280;61846;52.970;-3.168;2023-05-21T08:37:12;101512.08;;;19.36;29.05
73566;BME280;61846;52.970;-3.168;2023-05-21T08:39:38;101504.73;;;20.44;26.74
73566;BME280;61846;52.970;-3.168;2023-05-21T08:42:08;101505.63;;;19.90;26.35
73566;BME280;61846;52.970;-3.168;2023-05-21T08:44:31;101508.04;;;19.66;25.75
73566;BME280;61846;52.970;-3.168;2023-05-21T08:46:55;101511.20;;;19.00;27.89
73566;BME280;61846;52.970;-3.168;2023-05-21T08:49:25;101506.48;;;20.24;25.89
73566;BME280;61846;52.970;-3.168;2023-05-21T08:51:46;101503.97;;;20.49;26.25
73566;BME280;61846;52.970;-3.168;2023-05-21T08:54:11;101505.48;;;20.73;24.49
73566;BME280;61846;52.970;-3.168;2023-05-21T08:56:37;101508.19;;;20.70;25.59
73566;BME280;61846;52.970;-3.168;2023-05-21T08:59:01;101506.94;;;19.97;27.96
73566;BME280;61846;52.970;-3.168;2023-05-21T09:01:27;101500.77;;;21.23;24.93
73566;BME280;61846;52.970;-3.168;2023-05-21T09:03:55;101501.58;;;20.25;25.73
73566;BME280;61846;52.970;-3.168;2023-05-21T09:06:18;101492.48;;;21.50;24.93
73566;BME280;61846;52.970;-3.168;2023-05-21T09:08:43;101491.59;;;19.99;24.40
73566;BME280;61846;52.970;-3.168;2023-05-21T09:11:08;101489.98;;;20.71;24.95
73566;BME280;61846;52.970;-3.168;2023-05-21T09:13:34;101489.75;;;20.10;23.88
73566;BME280;61846;52.970;-3.168;2023-05-21T09:15:58;101487.95;;;20.64;24.23
73566;BME280;61846;52.970;-3.168;2023-05-21T09:18:24;101488.48;;;21.07;23.86
73566;BME280;61846;52.970;-3.168;2023-05-21T09:20:49;101484.80;;;21.40;22.90
73566;BME280;61846;52.970;-3.168;2023-05-21T09:23:16;101484.69;;;21.14;22.95
73566;BME280;61846;52.970;-3.168;2023-05-21T09:25:40;101482.46;;;21.63;23.76
73566;BME280;61846;52.970;-3.168;2023-05-21T09:28:10;101482.03;;;22.06;22.88
73566;BME280;61846;52.970;-3.168;2023-05-21T09:30:30;101479.84;;;22.30;21.27
73566;BME280;61846;52.970;-3.168;2023-05-21T09:32:56;101473.92;;;21.34;23.31
73566;BME280;61846;52.970;-3.168;2023-05-21T09:35:21;101473.09;;;22.90;21.03
73566;BME280;61846;52.970;-3.168;2023-05-21T09:37:48;101476.94;;;22.58;22.69
73566;BME280;61846;52.970;-3.168;2023-05-21T09:40:13;101477.06;;;22.88;21.46
73566;BME280;61846;52.970;-3.168;2023-05-21T09:42:38;101478.50;;;22.08;22.22
73566;BME280;61846;52.970;-3.168;2023-05-21T09:45:03;101478.15;;;22.86;22.77
73566;BME280;61846;52.970;-3.168;2023-05-21T09:47:28;101475.72;;;23.15;21.59
73566;BME280;61846;52.970;-3.168;2023-05-21T09:49:57;101474.53;;;22.68;21.10
73566;BME280;61846;52.970;-3.168;2023-05-21T09:52:23;101471.54;;;23.58;20.89
73566;BME280;61846;52.970;-3.168;2023-05-21T09:54:44;101471.88;;;23.39;20.61
73566;BME280;61846;52.970;-3.168;2023-05-21T09:57:13;101469.39;;;22.95;22.21
73566;BME280;61846;52.970;-3.168;2023-05-21T09:59:36;101468.74;;;22.55;20.58
73566;BME280;61846;52.970;-3.168;2023-05-21T10:02:01;101469.60;;;22.71;20.62
73566;BME280;61846;52.970;-3.168;2023-05-21T10:04:26;101464.42;;;22.44;21.02
73566;BME280;61846;52.970;-3.168;2023-05-21T10:06:52;101463.18;;;22.01;22.14
73566;BME280;61846;52.970;-3.168;2023-05-21T10:09:18;101457.01;;;22.20;22.18
73566;BME280;61846;52.970;-3.168;2023-05-21T10:11:43;101455.27;;;23.04;20.90
73566;BME280;61846;52.970;-3.168;2023-05-21T10:14:12;101457.87;;;22.45;20.57
73566;BME280;61846;52.970;-3.168;2023-05-21T10:16:34;101454.30;;;22.53;19.94
73566;BME280;61846;52.970;-3.168;2023-05-21T10:18:59;101454.56;;;22.30;20.01
73566;BME280;61846;52.970;-3.168;2023-05-21T10:21:25;101451.08;;;22.73;23.06
73566;BME280;61846;52.970;-3.168;2023-05-21T10:23:49;101448.69;;;23.27;19.77
73566;BME280;61846;52.970;-3.168;2023-05-21T10:26:14;101448.23;;;22.41;22.66
73566;BME280;61846;52.970;-3.168;2023-05-21T10:28:39;101444.50;;;23.42;19.87
73566;BME280;61846;52.970;-3.168;2023-05-21T10:31:05;101440.64;;;23.37;20.34
73566;BME280;61846;52.970;-3.168;2023-05-21T10:33:30;101436.13;;;23.35;22.91
73566;BME280;61846;52.970;-3.168;2023-05-21T10:35:57;101431.24;;;23.67;21.83
73566;BME280;61846;52.970;-3.168;2023-05-21T10:38:20;101427.68;;;24.11;21.00
73566;BME280;61846;52.970;-3.168;2023-05-21T10:40:46;101423.91;;;24.41;20.17
73566;BME280;61846;52.970;-3.168;2023-05-21T10:43:23;101424.27;;;24.40;20.75
73566;BME280;61846;52.970;-3.168;2023-05-21T10:45:49;101426.68;;;23.34;21.12
73566;BME280;61846;52.970;-3.168;2023-05-21T10:48:15;101424.52;;;23.74;19.32
73566;BME280;61846;52.970;-3.168;2023-05-21T10:50:41;101426.22;;;23.78;19.54
73566;BME280;61846;52.970;-3.168;2023-05-21T10:53:03;101426.56;;;23.04;19.62
73566;BME280;61846;52.970;-3.168;2023-05-21T10:55:31;101421.34;;;23.74;20.72
73566;BME280;61846;52.970;-3.168;2023-05-21T10:57:56;101417.76;;;23.82;19.21
73566;BME280;61846;52.970;-3.168;2023-05-21T11:00:10;101413.71;;;24.34;20.64
73566;BME280;61846;52.970;-3.168;2023-05-21T11:02:34;101416.55;;;24.09;21.16
73566;BME280;61846;52.970;-3.168;2023-05-21T11:05:00;101415.78;;;23.86;20.04
73566;BME280;61846;52.970;-3.168;2023-05-21T11:09:50;101411.91;;;23.80;19.92
73566;BME280;61846;52.970;-3.168;2023-05-21T11:12:16;101407.79;;;24.12;19.93
73566;BME280;61846;52.970;-3.168;2023-05-21T11:14:56;101410.67;;;23.66;21.71
73566;BME280;61846;52.970;-3.168;2023-05-21T11:17:10;101406.42;;;23.98;19.27
73566;BME280;61846;52.970;-3.168;2023-05-21T11:19:35;101404.72;;;24.44;20.34
73566;BME280;61846;52.970;-3.168;2023-05-21T11:21:57;101403.48;;;23.07;20.84
73566;BME280;61846;52.970;-3.168;2023-05-21T11:24:23;101397.86;;;23.35;20.51
73566;BME280;61846;52.970;-3.168;2023-05-21T11:26:59;101394.34;;;24.82;20.08
73566;BME280;61846;52.970;-3.168;2023-05-21T11:29:13;101400.94;;;25.20;19.23
73566;BME280;61846;52.970;-3.168;2023-05-21T11:31:40;101399.43;;;24.98;19.83
73566;BME280;61846;52.970;-3.168;2023-05-21T11:34:11;101402.39;;;23.27;20.86
73566;BME280;61846;52.970;-3.168;2023-05-21T11:36:29;101391.73;;;25.12;19.69
73566;BME280;61846;52.970;-3.168;2023-05-21T11:39:08;101392.14;;;24.78;19.26
73566;BME280;61846;52.970;-3.168;2023-05-21T11:41:20;101393.46;;;24.79;21.66
73566;BME280;61846;52.970;-3.168;2023-05-21T11:43:45;101393.42;;;26.04;19.67
73566;BME280;61846;52.970;-3.168;2023-05-21T11:46:11;101394.75;;;24.47;19.81
73566;BME280;61846;52.970;-3.168;2023-05-21T11:48:37;101390.08;;;24.34;20.96
73566;BME280;61846;52.970;-3.168;2023-05-21T11:51:01;101391.05;;;24.09;19.73
73566;BME280;61846;52.970;-3.168;2023-05-21T11:53:28;101391.18;;;25.10;19.61
73566;BME280;61846;52.970;-3.168;2023-05-21T11:55:51;101384.86;;;24.47;20.14
73566;BME280;61846;52.970;-3.168;2023-05-21T11:58:17;101390.12;;;24.29;20.40
73566;BME280;61846;52.970;-3.168;2023-05-21T12:00:42;101388.93;;;25.02;20.13
73566;BME280;61846;52.970;-3.168;2023-05-21T12:03:07;101384.39;;;25.40;19.40
73566;BME280;61846;52.970;-3.168;2023-05-21T12:07:57;101380.97;;;25.27;19.93
73566;BME280;61846;52.970;-3.168;2023-05-21T12:10:23;101384.34;;;25.86;18.91
73566;BME280;61846;52.970;-3.168;2023-05-21T12:12:48;101379.27;;;25.72;18.74
73566;BME280;61846;52.970;-3.168;2023-05-21T12:15:13;101385.39;;;23.99;20.32
73566;BME280;61846;52.970;-3.168;2023-05-21T12:17:39;101383.03;;;25.13;20.07
73566;BME280;61846;52.970;-3.168;2023-05-21T12:20:05;101381.87;;;24.00;20.62
73566;BME280;61846;52.970;-3.168;2023-05-21T12:22:30;101385.07;;;23.62;20.85
73566;BME280;61846;52.970;-3.168;2023-05-21T12:24:55;101382.31;;;23.86;21.74
73566;BME280;61846;52.970;-3.168;2023-05-21T12:27:21;101382.09;;;24.55;19.97
73566;BME280;61846;52.970;-3.168;2023-05-21T12:29:48;101375.81;;;25.65;19.66
73566;BME280;61846;52.970;-3.168;2023-05-21T12:32:13;101375.64;;;25.66;20.08
73566;BME280;61846;52.970;-3.168;2023-05-21T12:34:38;101372.45;;;25.78;18.69